Time;durP1;ratioP1;P1;durP2;ratioP2;P2;SDS_P1;SDS_P2;PMS_P1;PMS_P2;Temp;Humidity;BMP_temperature;BMP_pressure;BME280_temperature;BME280_humidity;BME280_pressure;Samples;Min_cycle;Max_cycle;Signal;HPM_P1;HPM_P2
2021/07/25 00:00:42;;;;;;;9.07;4.38;;;;;;;19.92;66.23;100306.72;5044992;28;20047;-64
2021/07/25 00:03:09;;;;;;;12.82;4.70;;;;;;;19.91;66.51;100307.06;5033812;28;20041;-64
2021/07/25 00:05:39;;;;;;;8.65;4.22;;;;;;;19.87;66.36;100295.59;5038024;28;20056;-65
2021/07/25 00:08:11;;;;;;;;;;;;;;;19.78;66.63;100300.53;5040083;28;20448;-65
2021/07/25 00:10:43;;;;;;;16.23;4.43;;;;;;;19.74;66.93;100293.91;5040571;28;19929;-62
2021/07/25 00:13:11;;;;;;;8.27;4.60;;;;;;;19.79;66.46;100293.66;5037443;28;20136;-63
2021/07/25 00:15:38;;;;;;;11.05;4.13;;;;;;;19.82;66.50;100292.97;5042263;28;20068;-68
2021/07/25 00:18:05;;;;;;;12.20;4.13;;;;;;;19.85;66.24;100295.13;5036522;28;20045;-68
2021/07/25 00:20:33;;;;;;;8.05;4.20;;;;;;;19.71;66.52;100266.28;5040327;28;20083;-69
2021/07/25 00:23:00;;;;;;;10.73;4.70;;;;;;;19.80;66.75;100284.84;5043534;28;20041;-69
2021/07/25 00:25:28;;;;;;;6.10;3.65;;;;;;;19.80;66.76;100284.03;5047922;28;20072;-76
2021/07/25 00:27:55;;;;;;;10.13;4.47;;;;;;;19.77;66.71;100281.88;5040562;28;20140;-73
2021/07/25 00:30:24;;;;;;;9.63;3.55;;;;;;;19.72;66.56;100277.25;5039607;28;20049;-72
2021/07/25 00:32:52;;;;;;;7.32;3.80;;;;;;;19.77;66.64;100285.53;5044676;28;20045;-71
2021/07/25 00:35:19;;;;;;;7.07;3.90;;;;;;;19.76;66.57;100283.03;5048173;28;20124;-68
2021/07/25 00:37:47;;;;;;;18.40;4.50;;;;;;;19.81;66.41;100280.00;5050600;28;20408;-71
2021/07/25 00:40:28;;;;;;;11.10;4.65;;;;;;;19.81;66.60;100280.00;5045053;28;20092;-70
2021/07/25 00:42:54;;;;;;;10.18;4.90;;;;;;;19.83;66.42;100289.81;5042054;28;20128;-71
2021/07/25 00:45:21;;;;;;;7.90;3.67;;;;;;;19.76;66.75;100289.56;5044271;28;20948;-78
2021/07/25 00:47:48;;;;;;;11.63;3.40;;;;;;;19.71;66.88;100277.59;5040359;28;20676;-68
2021/07/25 00:50:16;;;;;;;8.77;3.60;;;;;;;19.61;66.90;100265.50;5039124;28;20073;-80
2021/07/25 00:52:44;;;;;;;9.73;4.38;;;;;;;19.74;66.69;100288.25;5030906;28;20140;-79
2021/07/25 00:55:12;;;;;;;11.98;4.03;;;;;;;19.80;66.71;100275.53;5035533;28;20076;-76
2021/07/25 00:57:39;;;;;;;16.23;4.63;;;;;;;19.78;66.64;100283.53;5046157;28;20219;-78
2021/07/25 01:00:10;;;;;;;12.52;4.47;;;;;;;19.82;66.43;100271.13;5049315;28;20482;-75
2021/07/25 01:02:50;;;;;;;15.30;4.40;;;;;;;19.72;66.40;100250.91;5040380;28;20551;-63
2021/07/25 01:05:43;;;;;;;10.68;4.85;;;;;;;20.00;66.10;100280.28;5050375;28;20124;-67
2021/07/25 01:08:19;;;;;;;8.55;4.22;;;;;;;20.08;66.15;100287.84;5033762;28;20132;-66
2021/07/25 01:10:49;;;;;;;19.55;5.82;;;;;;;20.09;66.08;100263.16;5058751;28;20098;-67
2021/07/25 01:13:23;;;;;;;9.90;4.70;;;;;;;20.22;65.94;100275.38;5046117;28;20119;-68
2021/07/25 01:15:51;;;;;;;8.40;4.93;;;;;;;20.26;65.89;100274.28;5031471;28;20471;-73
2021/07/25 01:18:18;;;;;;;11.45;4.20;;;;;;;20.13;65.83;100247.94;5042405;28;20095;-72
2021/07/25 01:20:45;;;;;;;11.35;5.63;;;;;;;20.19;66.00;100257.03;5038946;28;20128;-74
2021/07/25 01:23:12;;;;;;;9.43;4.07;;;;;;;20.20;65.95;100261.53;5036490;28;20146;-72
2021/07/25 01:25:40;;;;;;;13.45;4.28;;;;;;;20.01;65.94;100249.94;5039634;28;20049;-84
2021/07/25 01:28:14;;;;;;;13.50;3.85;;;;;;;20.06;66.12;100259.03;5040357;28;20420;-72
2021/07/25 01:30:51;;;;;;;6.05;3.45;;;;;;;19.99;66.03;100252.28;5036302;28;20123;-69
2021/07/25 01:33:23;;;;;;;11.77;4.20;;;;;;;19.85;66.29;100246.94;5044831;28;20045;-71
2021/07/25 01:35:51;;;;;;;13.23;4.65;;;;;;;19.82;66.24;100244.81;5047039;28;20083;-74
2021/07/25 01:38:18;;;;;;;8.88;4.03;;;;;;;19.79;66.11;100254.00;5036307;28;20129;-67
2021/07/25 01:41:04;;;;;;;10.45;4.63;;;;;;;19.76;66.19;100249.03;5037629;28;20083;-67
2021/07/25 01:43:33;;;;;;;9.75;4.50;;;;;;;19.64;66.05;100242.16;5035215;28;20128;-70
2021/07/25 01:46:00;;;;;;;10.07;3.53;;;;;;;19.39;66.39;100231.91;5042750;28;20055;-69
2021/07/25 01:48:27;;;;;;;11.48;3.75;;;;;;;19.24;66.64;100227.69;5029985;28;20709;-63
2021/07/25 01:50:55;;;;;;;7.43;3.60;;;;;;;19.27;66.41;100244.00;5029266;28;20521;-70
2021/07/25 01:53:21;;;;;;;8.40;3.30;;;;;;;19.17;66.72;100225.41;5039199;28;20124;-67
2021/07/25 01:55:48;;;;;;;10.60;4.10;;;;;;;19.12;66.87;100231.31;5043219;28;20124;-65
2021/07/25 01:58:15;;;;;;;9.18;3.90;;;;;;;19.10;67.02;100222.31;5036151;28;20111;-71
2021/07/25 02:00:42;;;;;;;9.13;3.60;;;;;;;19.15;66.95;100230.63;5045128;28;20124;-75
2021/07/25 02:03:09;;;;;;;10.32;4.63;;;;;;;19.18;66.72;100229.94;5049268;28;20044;-68
2021/07/25 02:05:37;;;;;;;13.13;4.63;;;;;;;19.18;67.12;100224.28;5040274;28;20054;-65
2021/07/25 02:08:04;;;;;;;10.85;4.82;;;;;;;19.20;66.66;100220.25;5036532;28;20121;-74
2021/07/25 02:10:31;;;;;;;9.07;4.78;;;;;;;19.18;66.73;100220.63;5038553;28;20129;-67
2021/07/25 02:12:58;;;;;;;8.73;4.47;;;;;;;19.26;66.55;100216.03;5033746;28;20045;-70
2021/07/25 02:15:25;;;;;;;10.32;4.15;;;;;;;19.16;66.65;100212.44;5038853;28;20479;-68
2021/07/25 02:17:52;;;;;;;8.70;4.03;;;;;;;19.17;66.78;100216.94;5034310;28;20148;-65
2021/07/25 02:20:19;;;;;;;11.93;4.45;;;;;;;19.13;67.12;100217.97;5043473;28;20057;-66
2021/07/25 02:22:45;;;;;;;8.43;4.03;;;;;;;19.11;66.85;100214.66;5049995;28;20129;-73
2021/07/25 02:25:12;;;;;;;9.05;3.95;;;;;;;19.07;67.07;100208.88;5044821;28;20084;-70
2021/07/25 02:27:39;;;;;;;13.70;4.07;;;;;;;19.06;67.20;100214.88;5046649;28;20080;-69
2021/07/25 02:30:07;;;;;;;7.18;3.45;;;;;;;19.04;67.02;100209.59;5035976;28;20144;-68
2021/07/25 02:32:34;;;;;;;8.40;3.97;;;;;;;19.05;66.93;100202.75;5044953;28;20055;-69
2021/07/25 02:35:01;;;;;;;12.80;4.38;;;;;;;19.07;66.81;100211.69;5043365;28;20465;-78
2021/07/25 02:37:27;;;;;;;6.47;3.72;;;;;;;19.12;66.59;100208.66;5049171;28;20051;-73
2021/07/25 02:39:54;;;;;;;8.15;3.88;;;;;;;19.15;66.69;100219.31;5042965;28;20255;-74
2021/07/25 02:42:22;;;;;;;8.13;3.83;;;;;;;19.16;66.57;100192.66;5048773;28;20515;-72
2021/07/25 02:44:49;;;;;;;11.23;4.40;;;;;;;19.13;66.39;100199.00;5039574;28;20051;-72
2021/07/25 02:47:16;;;;;;;6.38;3.13;;;;;;;19.15;66.24;100195.84;5043593;28;20087;-71
2021/07/25 02:49:43;;;;;;;8.27;3.58;;;;;;;19.16;66.01;100198.31;5046962;28;20140;-73
2021/07/25 02:52:10;;;;;;;9.52;4.25;;;;;;;19.07;66.14;100182.56;5053639;28;20136;-64
2021/07/25 02:54:37;;;;;;;11.27;2.88;;;;;;;19.16;66.36;100191.81;5044177;28;20544;-68
2021/07/25 02:57:04;;;;;;;8.07;3.45;;;;;;;19.14;66.24;100192.19;5037351;28;20128;-65
2021/07/25 02:59:31;;;;;;;14.27;4.15;;;;;;;19.15;66.00;100198.66;5044796;28;20045;-66
2021/07/25 03:01:58;;;;;;;7.55;3.72;;;;;;;19.15;66.31;100185.34;5039809;28;20420;-62
2021/07/25 03:04:25;;;;;;;7.70;4.03;;;;;;;19.23;66.04;100185.59;5046670;28;20072;-61
2021/07/25 03:06:52;;;;;;;9.18;3.63;;;;;;;19.00;66.09;100163.31;5039841;28;20133;-66
2021/07/25 03:09:19;;;;;;;6.18;3.17;;;;;;;19.01;66.41;100183.94;5045857;28;20130;-62
2021/07/25 03:11:46;;;;;;;8.75;3.60;;;;;;;18.97;66.61;100188.66;5041104;28;20080;-67
2021/07/25 03:14:13;;;;;;;7.65;2.53;;;;;;;18.99;66.83;100191.97;5049818;28;20136;-66
2021/07/25 03:16:40;;;;;;;7.90;3.42;;;;;;;18.92;66.96;100184.88;5039829;28;20044;-64
2021/07/25 03:19:07;;;;;;;9.30;3.70;;;;;;;18.96;66.95;100187.81;5051370;28;20052;-69
2021/07/25 03:21:34;;;;;;;9.45;3.63;;;;;;;18.98;66.49;100191.16;5050852;28;20513;-70
2021/07/25 03:24:01;;;;;;;7.40;4.03;;;;;;;19.07;66.17;100188.22;5051727;28;20299;-65
2021/07/25 03:26:28;;;;;;;9.13;4.03;;;;;;;19.10;66.23;100181.88;5053877;28;20085;-65
2021/07/25 03:28:55;;;;;;;11.43;3.83;;;;;;;19.05;66.20;100171.59;5050497;28;20084;-66
2021/07/25 03:31:21;;;;;;;8.50;3.38;;;;;;;19.08;66.40;100182.25;5034591;28;20083;-68
2021/07/25 03:33:48;;;;;;;6.18;3.10;;;;;;;18.98;66.32;100162.03;5050907;28;20049;-67
2021/07/25 03:36:15;;;;;;;9.90;4.95;;;;;;;19.05;66.25;100168.78;5043017;28;20077;-68
2021/07/25 03:38:42;;;;;;;6.20;3.47;;;;;;;19.07;66.26;100155.09;5037623;28;20156;-67
2021/07/25 03:41:09;;;;;;;8.23;3.92;;;;;;;19.06;66.11;100164.75;5043312;28;20144;-66
2021/07/25 03:43:36;;;;;;;9.48;3.63;;;;;;;19.12;66.09;100174.69;5038893;28;20049;-70
2021/07/25 03:46:03;;;;;;;9.82;3.28;;;;;;;18.98;66.04;100151.53;5041105;28;20092;-66
2021/07/25 03:48:30;;;;;;;8.50;3.17;;;;;;;19.05;66.05;100165.94;5035854;28;20615;-65
2021/07/25 03:50:57;;;;;;;7.60;2.97;;;;;;;18.98;66.15;100147.88;5041767;28;20129;-65
2021/07/25 03:53:24;;;;;;;6.50;3.03;;;;;;;19.11;65.78;100160.88;5045828;28;20124;-63
2021/07/25 03:55:51;;;;;;;8.73;2.90;;;;;;;19.22;65.60;100162.13;5036731;28;20153;-63
2021/07/25 03:58:18;;;;;;;7.90;3.13;;;;;;;19.35;65.35;100166.66;5037264;28;20127;-63
2021/07/25 04:00:44;;;;;;;6.95;2.88;;;;;;;19.47;65.19;100171.50;5039213;28;20080;-66
2021/07/25 04:03:11;;;;;;;6.80;2.78;;;;;;;19.56;65.03;100172.25;5049783;28;20127;-64
2021/07/25 04:05:38;;;;;;;5.57;3.15;;;;;;;19.55;64.67;100159.25;5049511;28;20076;-65
2021/07/25 04:08:07;;;;;;;8.90;3.13;;;;;;;19.59;64.88;100162.25;5040283;28;20045;-65
2021/07/25 04:10:39;;;;;;;5.55;2.97;;;;;;;19.60;64.58;100153.38;5038745;28;20077;-66
2021/07/25 04:13:06;;;;;;;5.70;2.70;;;;;;;19.70;64.62;100163.47;5040569;28;20094;-65
2021/07/25 04:15:33;;;;;;;6.97;3.05;;;;;;;19.79;64.20;100157.66;5045839;28;20120;-65
2021/07/25 04:17:59;;;;;;;8.27;2.80;;;;;;;19.64;64.04;100151.53;5042823;28;20123;-65
2021/07/25 04:20:26;;;;;;;8.13;2.63;;;;;;;19.61;64.22;100157.84;5031226;28;20144;-61
2021/07/25 04:22:53;;;;;;;4.32;2.17;;;;;;;19.31;64.07;100119.56;5044867;28;20052;-61
2021/07/25 04:25:20;;;;;;;7.60;3.08;;;;;;;19.58;64.14;100152.88;5039258;28;20128;-62
2021/07/25 04:27:47;;;;;;;6.68;2.85;;;;;;;19.58;64.24;100135.91;5043442;28;20132;-62
2021/07/25 04:30:15;;;;;;;6.60;2.80;;;;;;;19.58;64.14;100150.06;5040106;28;20161;-63
2021/07/25 04:32:42;;;;;;;7.75;2.65;;;;;;;19.32;64.58;100155.22;5048221;28;20124;-65
2021/07/25 04:35:09;;;;;;;5.50;2.72;;;;;;;19.24;64.72;100142.78;5041954;28;20124;-64
2021/07/25 04:37:47;;;;;;;10.07;2.92;;;;;;;19.18;64.62;100145.00;5042819;28;20132;-63
2021/07/25 04:40:16;;;;;;;5.75;2.90;;;;;;;19.11;65.17;100136.25;5043527;28;22579;-62
2021/07/25 04:42:55;;;;;;;7.82;3.33;;;;;;;18.92;65.75;100135.94;5038368;28;20077;-62
2021/07/25 04:45:31;;;;;;;5.38;2.42;;;;;;;18.81;66.04;100146.03;5047527;28;20092;-62
2021/07/25 04:48:32;;;;;;;8.93;2.65;;;;;;;18.78;66.12;100141.06;5041614;28;20053;-62
2021/07/25 04:51:10;;;;;;;6.93;3.08;;;;;;;18.79;65.73;100137.06;5038102;28;20162;-62
2021/07/25 04:53:39;;;;;;;6.55;2.63;;;;;;;18.89;65.69;100150.78;5038643;28;20124;-63
2021/07/25 04:56:12;;;;;;;6.95;3.42;;;;;;;18.99;65.76;100152.34;5040182;28;20076;-59
2021/07/25 04:58:52;;;;;;;10.13;2.60;;;;;;;18.95;65.89;100160.72;5039177;28;20516;-60
2021/07/25 05:01:33;;;;;;;6.88;2.85;;;;;;;18.85;65.79;100161.13;5033939;28;20620;-60
2021/07/25 05:04:06;;;;;;;9.13;3.33;;;;;;;18.98;65.71;100157.19;5038387;28;20041;-60
2021/07/25 05:06:33;;;;;;;4.67;2.50;;;;;;;19.08;65.69;100164.44;5041388;28;20046;-65
2021/07/25 05:09:01;;;;;;;7.47;3.40;;;;;;;19.08;65.31;100167.28;5039797;28;20290;-62
2021/07/25 05:11:37;;;;;;;5.88;2.65;;;;;;;19.09;65.37;100164.06;5053963;28;20120;-59
2021/07/25 05:14:13;;;;;;;7.88;2.58;;;;;;;19.09;65.47;100166.91;5035397;28;20045;-60
2021/07/25 05:16:44;;;;;;;6.18;2.97;;;;;;;19.03;65.67;100154.13;5052789;28;20478;-59
2021/07/25 05:19:29;;;;;;;6.45;3.22;;;;;;;19.06;65.54;100159.09;5048852;28;20045;-63
2021/07/25 05:22:15;;;;;;;4.68;2.60;;;;;;;19.03;65.51;100162.63;5040196;28;20079;-61
2021/07/25 05:24:44;;;;;;;6.53;2.20;;;;;;;19.06;65.30;100170.44;5039961;28;20056;-64
2021/07/25 05:27:40;;;;;;;4.40;2.22;;;;;;;18.99;65.36;100164.50;5037723;28;20144;-63
2021/07/25 05:30:10;;;;;;;5.60;2.55;;;;;;;19.00;65.59;100165.31;5039644;28;20076;-65
2021/07/25 05:32:37;;;;;;;7.63;3.50;;;;;;;18.98;65.46;100164.88;5043829;28;20080;-62
2021/07/25 05:35:05;;;;;;;4.43;2.60;;;;;;;19.04;65.33;100158.66;5050935;28;20493;-62
2021/07/25 05:37:32;;;;;;;6.55;2.80;;;;;;;18.92;65.42;100141.59;5032926;28;20124;-59
2021/07/25 05:39:59;;;;;;;6.43;2.70;;;;;;;19.06;65.30;100158.28;5040127;28;20055;-60
2021/07/25 05:42:26;;;;;;;7.35;3.47;;;;;;;19.20;65.18;100167.28;5044737;28;20080;-59
2021/07/25 05:44:52;;;;;;;6.13;2.45;;;;;;;19.29;64.91;100168.03;5046168;28;20573;-59
2021/07/25 05:47:19;;;;;;;4.32;2.28;;;;;;;19.49;64.81;100166.34;5034415;28;20160;-59
2021/07/25 05:49:46;;;;;;;7.63;3.13;;;;;;;19.51;64.34;100155.47;5031283;28;20080;-62
2021/07/25 05:52:13;;;;;;;4.43;2.50;;;;;;;19.69;64.40;100163.78;5035487;28;20124;-63
2021/07/25 05:54:41;;;;;;;4.90;2.47;;;;;;;19.76;64.43;100161.22;5031359;28;20581;-70
2021/07/25 05:57:09;;;;;;;6.20;2.83;;;;;;;19.81;64.21;100166.66;5039118;28;20124;-66
2021/07/25 05:59:36;;;;;;;8.70;2.35;;;;;;;19.74;64.35;100157.91;5033427;28;20136;-64
2021/07/25 06:02:03;;;;;;;6.40;2.90;;;;;;;19.74;64.09;100150.25;5037593;28;20412;-60
2021/07/25 06:04:31;;;;;;;5.97;2.70;;;;;;;19.76;64.09;100158.38;5035479;28;20049;-60
2021/07/25 06:06:57;;;;;;;6.35;2.50;;;;;;;19.66;64.50;100159.69;5032667;28;20069;-59
2021/07/25 06:09:25;;;;;;;6.03;2.67;;;;;;;19.64;64.25;100160.03;5040493;28;20089;-67
2021/07/25 06:11:52;;;;;;;5.68;2.80;;;;;;;19.59;64.18;100165.91;5045428;28;20455;-67
2021/07/25 06:14:19;;;;;;;5.85;2.90;;;;;;;19.60;64.38;100172.38;5043236;28;20120;-66
2021/07/25 06:16:46;;;;;;;8.10;3.28;;;;;;;19.53;64.22;100181.44;5052519;28;20497;-68
2021/07/25 06:19:13;;;;;;;7.35;2.60;;;;;;;19.50;64.24;100182.16;5042965;28;20045;-66
2021/07/25 06:21:39;;;;;;;7.57;3.35;;;;;;;19.50;64.34;100173.66;5038356;28;20128;-67
2021/07/25 06:24:06;;;;;;;6.28;3.00;;;;;;;19.49;64.27;100174.00;5039292;28;20074;-67
2021/07/25 06:26:33;;;;;;;9.85;4.20;;;;;;;19.48;64.26;100147.66;5040224;28;20092;-62
2021/07/25 06:29:00;;;;;;;5.38;2.85;;;;;;;19.70;63.95;100176.81;5040873;28;20041;-62
2021/07/25 06:31:27;;;;;;;6.55;3.33;;;;;;;19.64;64.01;100179.84;5046214;28;20045;-62
2021/07/25 06:33:54;;;;;;;10.07;3.15;;;;;;;19.70;64.02;100176.81;5040776;28;20045;-62
2021/07/25 06:36:21;;;;;;;8.07;3.28;;;;;;;19.78;63.96;100179.50;5045984;28;20132;-62
2021/07/25 06:38:48;;;;;;;6.80;2.90;;;;;;;19.79;63.85;100181.16;5036784;28;20666;-62
2021/07/25 06:41:15;;;;;;;4.95;2.55;;;;;;;19.75;63.81;100159.56;5038754;28;20140;-62
2021/07/25 06:43:42;;;;;;;5.25;3.03;;;;;;;19.91;63.79;100182.38;5045936;28;20070;-61
2021/07/25 06:46:09;;;;;;;10.00;2.72;;;;;;;19.86;64.06;100175.78;5040630;28;20045;-62
2021/07/25 06:48:36;;;;;;;8.38;3.10;;;;;;;19.92;63.67;100184.03;5048246;28;20041;-62
2021/07/25 06:51:04;;;;;;;6.45;2.38;;;;;;;19.87;63.86;100168.91;5035044;28;20132;-62
2021/07/25 06:53:32;;;;;;;5.90;3.35;;;;;;;19.94;63.88;100170.34;5040371;28;20094;-62
2021/07/25 06:56:03;;;;;;;9.05;2.63;;;;;;;19.92;64.11;100162.19;5034330;28;20125;-61
2021/07/25 06:58:31;;;;;;;6.65;3.05;;;;;;;19.94;63.89;100170.34;5031774;28;20045;-62
2021/07/25 07:00:58;;;;;;;6.78;2.90;;;;;;;19.83;63.95;100167.97;5045132;28;20042;-63
2021/07/25 07:03:26;;;;;;;5.32;3.40;;;;;;;19.83;64.00;100182.13;5037958;28;20456;-62
2021/07/25 07:05:53;;;;;;;7.82;2.83;;;;;;;19.71;64.15;100184.94;5039464;28;20107;-63
2021/07/25 07:08:21;;;;;;;5.72;2.35;;;;;;;19.62;64.40;100175.66;5040052;28;20065;-65
2021/07/25 07:10:49;;;;;;;7.07;2.65;;;;;;;19.50;64.49;100176.47;5048465;28;20063;-69
2021/07/25 07:13:18;;;;;;;5.43;2.85;;;;;;;19.30;64.89;100152.72;5044738;28;20489;-65
2021/07/25 07:15:46;;;;;;;10.98;3.63;;;;;;;19.28;65.28;100165.53;5040132;28;20059;-60
2021/07/25 07:18:14;;;;;;;5.55;3.15;;;;;;;19.27;65.14;100190.19;5045933;28;20048;-61
2021/07/25 07:20:41;;;;;;;9.70;3.50;;;;;;;19.05;65.51;100163.13;5040162;28;20080;-62
2021/07/25 07:23:10;;;;;;;6.20;3.85;;;;;;;19.14;65.80;100178.03;5039188;28;20559;-62
2021/07/25 07:25:42;;;;;;;7.00;3.60;;;;;;;19.05;65.71;100174.44;5050913;28;20120;-62
2021/07/25 07:28:10;;;;;;;8.35;3.53;;;;;;;19.15;65.89;100176.84;5036227;28;20080;-62
2021/07/25 07:30:38;;;;;;;9.02;3.70;;;;;;;19.11;65.81;100175.03;5042302;28;20532;-62
2021/07/25 07:33:07;;;;;;;8.95;3.83;;;;;;;19.13;65.88;100176.34;5040714;28;20041;-62
2021/07/25 07:35:34;;;;;;;9.52;4.13;;;;;;;18.90;66.30;100173.06;5041089;28;20584;-63
2021/07/25 07:38:01;;;;;;;8.32;3.22;;;;;;;18.53;66.86;100154.19;5036233;28;20124;-63
2021/07/25 07:40:28;;;;;;;5.40;3.22;;;;;;;18.48;67.51;100175.03;5048681;28;20135;-63
2021/07/25 07:42:55;;;;;;;6.32;2.92;;;;;;;18.40;68.03;100192.88;5043644;28;20067;-64
2021/07/25 07:45:22;;;;;;;7.97;2.72;;;;;;;18.05;68.78;100163.97;5044947;28;20053;-64
2021/07/25 07:47:52;;;;;;;5.53;2.40;;;;;;;18.08;69.15;100178.25;5036354;28;20127;-64
2021/07/25 07:50:19;;;;;;;8.75;3.38;;;;;;;17.90;70.16;100185.16;5031280;28;20060;-63
2021/07/25 07:52:47;;;;;;;9.20;2.92;;;;;;;17.77;70.07;100176.56;5033347;28;20128;-64
2021/07/25 07:55:15;;;;;;;7.25;3.05;;;;;;;17.86;70.29;100196.31;5031897;28;20053;-64
2021/07/25 07:57:43;;;;;;;6.45;3.08;;;;;;;17.88;70.56;100190.31;5081344;28;20094;-72
2021/07/25 08:00:11;;;;;;;6.40;3.58;;;;;;;18.06;70.34;100180.59;5045200;28;20060;-72
2021/07/25 08:02:39;;;;;;;7.78;3.22;;;;;;;18.30;69.97;100187.63;5035718;28;20128;-72
2021/07/25 08:05:07;;;;;;;10.23;4.18;;;;;;;18.37;69.89;100199.22;5040547;28;20072;-71
2021/07/25 08:07:34;;;;;;;8.45;4.05;;;;;;;18.27;70.48;100191.94;5043663;28;20049;-64
2021/07/25 08:10:01;;;;;;;8.32;3.47;;;;;;;18.15;71.04;100197.50;5035146;28;20409;-64
2021/07/25 08:12:28;;;;;;;7.68;3.70;;;;;;;18.08;71.39;100198.03;5046326;28;20073;-64
2021/07/25 08:14:55;;;;;;;10.27;3.95;;;;;;;18.01;71.58;100200.56;5039940;28;20045;-64
2021/07/25 08:17:23;;;;;;;10.88;3.80;;;;;;;18.16;71.39;100205.66;5034404;28;20063;-64
2021/07/25 08:19:51;;;;;;;6.70;3.50;;;;;;;18.16;71.91;100214.13;5057608;28;20064;-64
2021/07/25 08:22:18;;;;;;;4.88;2.75;;;;;;;17.80;72.52;100202.47;5035794;28;20133;-64
2021/07/25 08:24:45;;;;;;;3.78;2.30;;;;;;;17.77;73.12;100210.44;5042158;28;20136;-64
2021/07/25 08:27:12;;;;;;;4.88;2.25;;;;;;;17.69;73.60;100214.09;5042808;28;20124;-64
2021/07/25 08:29:41;;;;;;;7.53;3.17;;;;;;;17.54;73.69;100200.53;5043721;28;20045;-64
2021/07/25 08:32:09;;;;;;;5.50;2.80;;;;;;;17.61;73.70;100194.38;5039909;28;20126;-64
2021/07/25 08:34:37;;;;;;;4.18;2.47;;;;;;;17.67;74.26;100209.94;5040161;28;20050;-64
2021/07/25 08:37:04;;;;;;;7.75;3.35;;;;;;;17.58;74.58;100173.28;5030616;28;20107;-62
2021/07/25 08:39:31;;;;;;;4.70;2.28;;;;;;;17.86;74.05;100209.59;5047379;28;20556;-68
2021/07/25 08:42:02;;;;;;;5.90;2.80;;;;;;;17.67;74.84;100204.31;5040039;28;20132;-62
2021/07/25 08:44:48;;;;;;;5.55;2.35;;;;;;;17.68;74.92;100201.16;5036572;28;20497;-68
2021/07/25 08:47:37;;;;;;;5.22;3.05;;;;;;;17.52;74.84;100160.50;5038171;28;20076;-72
2021/07/25 08:50:10;;;;;;;7.88;2.92;;;;;;;17.82;74.36;100191.69;5044442;28;20051;-66
2021/07/25 08:52:43;;;;;;;5.10;2.70;;;;;;;17.83;74.02;100185.69;5033181;28;20102;-63
2021/07/25 08:55:16;;;;;;;6.07;3.05;;;;;;;18.04;74.40;100208.34;5039695;28;20037;-65
2021/07/25 08:57:45;;;;;;;4.45;2.60;;;;;;;17.77;74.35;100161.59;5042335;28;20041;-65
2021/07/25 09:00:15;;;;;;;5.22;3.03;;;;;;;18.09;74.22;100205.34;5037304;28;20466;-61
2021/07/25 09:02:42;;;;;;;;;;;;;;;18.19;74.78;100204.97;5051104;28;20123;-62
2021/07/25 09:05:10;;;;;;;4.15;2.60;;;;;;;18.02;74.21;100185.28;5052344;28;19920;-62
2021/07/25 09:07:42;;;;;;;5.97;2.83;;;;;;;18.21;74.36;100204.63;5050126;28;20460;-67
2021/07/25 09:10:18;;;;;;;5.63;3.08;;;;;;;18.37;74.22;100196.38;5034289;28;20163;-64
2021/07/25 09:12:47;;;;;;;5.07;2.58;;;;;;;18.57;74.17;100204.09;5043727;28;20068;-63
2021/07/25 09:15:20;;;;;;;5.60;2.70;;;;;;;18.53;74.12;100196.59;5048193;28;20493;-61
2021/07/25 09:17:48;;;;;;;6.95;3.70;;;;;;;18.92;73.92;100199.00;5042622;28;20131;-63
2021/07/25 09:20:30;;;;;;;8.43;4.00;;;;;;;18.88;73.36;100192.41;5036123;28;20212;-73
2021/07/25 09:22:58;;;;;;;6.55;3.92;;;;;;;19.00;73.64;100202.94;5042060;28;20053;-64
2021/07/25 09:25:25;;;;;;;6.90;3.92;;;;;;;19.10;73.12;100201.69;5034569;28;20092;-68
2021/07/25 09:27:58;;;;;;;6.60;4.07;;;;;;;19.38;73.34;100193.44;5035787;28;20132;-67
2021/07/25 09:30:28;;;;;;;5.85;2.75;;;;;;;19.55;72.62;100210.22;5041111;28;20042;-64
2021/07/25 09:32:56;;;;;;;5.80;2.33;;;;;;;19.65;72.75;100201.31;5048054;28;20061;-62
2021/07/25 09:35:36;;;;;;;5.88;3.20;;;;;;;19.62;72.64;100199.19;5048123;28;20048;-70
2021/07/25 09:38:02;;;;;;;;;;;;;;;19.72;72.47;100197.09;5040196;28;20041;-70
2021/07/25 09:40:32;;;;;;;6.97;3.38;;;;;;;19.82;72.18;100203.13;5048872;28;20042;-69
2021/07/25 09:43:16;;;;;;;5.38;3.35;;;;;;;19.88;72.51;100196.06;5048156;28;20396;-63
2021/07/25 09:45:55;;;;;;;4.68;2.90;;;;;;;19.97;72.13;100186.66;5040069;28;20464;-67
2021/07/25 09:48:53;;;;;;;2.45;1.30;;;;;;;19.88;71.95;100178.22;5033533;28;20080;-66
2021/07/25 09:51:23;;;;;;;4.22;1.92;;;;;;;20.06;72.17;100195.84;5049279;28;20072;-62
2021/07/25 09:53:52;;;;;;;7.00;2.45;;;;;;;20.08;71.86;100190.66;5057444;28;20072;-68
2021/07/25 09:56:27;;;;;;;5.07;2.53;;;;;;;20.20;71.57;100195.50;5058058;28;20080;-66
2021/07/25 09:58:59;;;;;;;7.95;2.97;;;;;;;20.19;71.30;100191.00;5049040;28;20123;-77
2021/07/25 10:01:39;;;;;;;5.05;3.00;;;;;;;20.40;71.50;100205.06;5057870;28;20049;-80
2021/07/25 10:04:27;;;;;;;10.23;3.42;;;;;;;20.59;71.32;100202.47;5043128;28;20098;-72
2021/07/25 10:06:55;;;;;;;5.00;2.22;;;;;;;20.73;71.29;100190.75;5043131;28;20053;-72
2021/07/25 10:09:23;;;;;;;6.28;2.60;;;;;;;20.81;71.05;100164.25;5037534;28;20382;-66
2021/07/25 10:12:03;;;;;;;5.55;2.60;;;;;;;21.09;70.64;100197.50;5036382;28;20128;-63
2021/07/25 10:14:33;;;;;;;7.25;3.25;;;;;;;21.13;70.37;100204.97;5045919;28;22062;-62
2021/07/25 10:17:04;;;;;;;5.07;3.03;;;;;;;21.35;70.58;100211.28;5053783;28;20153;-60
2021/07/25 10:19:42;;;;;;;4.22;2.75;;;;;;;21.45;70.13;100202.25;5050062;28;20485;-60
2021/07/25 10:22:13;;;;;;;7.40;3.17;;;;;;;21.50;69.91;100190.59;5049971;28;20049;-60
2021/07/25 10:24:43;;;;;;;8.23;3.22;;;;;;;21.60;69.81;100207.13;5045867;28;20106;-61
2021/07/25 10:27:10;;;;;;;7.70;3.58;;;;;;;21.59;69.90;100216.84;5041775;28;20549;-61
2021/07/25 10:29:41;;;;;;;8.00;3.92;;;;;;;21.50;70.04;100216.16;5041523;28;20124;-61
2021/07/25 10:32:09;;;;;;;8.90;3.65;;;;;;;21.51;69.75;100207.28;5047014;28;20442;-62
2021/07/25 10:34:40;;;;;;;8.15;4.20;;;;;;;21.76;69.78;100224.22;5042676;28;20084;-61
2021/07/25 10:37:10;;;;;;;6.53;3.53;;;;;;;21.68;69.60;100222.38;5043014;28;20045;-63
2021/07/25 10:39:43;;;;;;;7.53;4.45;;;;;;;21.58;69.97;100195.31;5040321;28;20120;-61
2021/07/25 10:42:13;;;;;;;10.50;3.85;;;;;;;21.61;69.42;100191.75;5042698;28;20069;-61
2021/07/25 10:44:43;;;;;;;8.32;5.18;;;;;;;21.81;69.06;100204.03;5047099;28;20123;-61
2021/07/25 10:47:21;;;;;;;12.23;5.68;;;;;;;21.95;69.25;100214.97;5039348;28;20140;-61
2021/07/25 10:50:01;;;;;;;9.10;4.43;;;;;;;21.97;69.37;100212.56;5038552;28;20482;-61
2021/07/25 10:52:48;;;;;;;12.07;5.18;;;;;;;21.96;69.29;100211.75;5038768;28;20415;-61
2021/07/25 10:55:41;;;;;;;11.63;6.13;;;;;;;21.98;69.22;100217.91;5051891;28;20429;-61
2021/07/25 10:58:13;;;;;;;10.63;5.55;;;;;;;22.13;68.83;100223.97;5043591;28;20053;-61
2021/07/25 11:00:51;;;;;;;9.73;5.10;;;;;;;22.22;68.58;100210.41;5044508;28;20485;-61
2021/07/25 11:03:30;;;;;;;10.30;5.10;;;;;;;22.39;68.74;100220.56;5037729;28;20556;-61
2021/07/25 11:06:13;;;;;;;9.43;5.45;;;;;;;22.65;68.07;100205.75;5035843;28;20054;-61
2021/07/25 11:08:47;;;;;;;8.98;5.18;;;;;;;22.74;67.87;100214.09;5034235;28;20046;-61
2021/07/25 11:11:26;;;;;;;12.50;6.47;;;;;;;22.66;68.38;100215.94;5045132;28;20128;-61
2021/07/25 11:13:53;;;;;;;11.70;5.87;;;;;;;22.80;67.76;100213.41;5040518;28;20116;-61
2021/07/25 11:16:29;;;;;;;13.98;5.50;;;;;;;23.01;67.91;100213.13;5037970;28;20056;-61
2021/07/25 11:19:11;;;;;;;9.30;5.60;;;;;;;23.17;67.35;100205.31;5035690;28;20045;-61
2021/07/25 11:21:50;;;;;;;10.10;6.22;;;;;;;23.18;67.22;100206.19;5049910;28;20052;-62
2021/07/25 11:24:22;;;;;;;8.63;4.93;;;;;;;23.12;67.36;100204.81;5041235;28;20128;-61
2021/07/25 11:26:49;;;;;;;9.45;5.75;;;;;;;23.10;67.18;100198.66;5033661;28;20045;-61
2021/07/25 11:29:18;;;;;;;10.55;5.47;;;;;;;23.15;66.92;100206.91;5042519;28;20119;-61
2021/07/25 11:31:47;;;;;;;5.87;3.30;;;;;;;23.13;67.03;100203.63;5041973;28;20052;-68
2021/07/25 11:34:24;;;;;;;5.55;3.40;;;;;;;22.98;67.21;100207.38;5035793;28;20053;-64
2021/07/25 11:36:55;;;;;;;6.35;3.05;;;;;;;22.86;67.95;100209.09;5034497;28;20236;-66